Time;durP1;ratioP1;P1;durP2;ratioP2;P2;SDS_P1;SDS_P2;PMS_P1;PMS_P2;Temp;Humidity;BMP_temperature;BMP_pressure;BME280_temperature;BME280_humidity;BME280_pressure;Samples;Min_cycle;Max_cycle;Signal;HPM_P1;HPM_P2
2021/03/08 00:00:20;;;;;;;43.28;24.08;;;;;;;2.84;87.80;101863.16;4953641;28;20043;-85
2021/03/08 00:02:47;;;;;;;43.28;26.15;;;;;;;2.84;87.86;101864.03;4933798;29;20043;-86
2021/03/08 00:05:13;;;;;;;44.45;24.45;;;;;;;2.85;87.82;101863.09;4941201;29;20043;-85
2021/03/08 00:07:39;;;;;;;43.20;24.70;;;;;;;2.80;87.73;101854.53;4954663;28;20070;-86
2021/03/08 00:10:05;;;;;;;46.17;24.67;;;;;;;2.78;87.72;101851.13;4967086;28;20118;-84
2021/03/08 00:12:31;;;;;;;47.83;26.65;;;;;;;2.81;87.75;101855.41;4992265;28;20042;-85
2021/03/08 00:14:57;;;;;;;44.97;26.75;;;;;;;2.85;87.95;101860.44;4972433;28;20063;-86
2021/03/08 00:17:23;;;;;;;46.33;22.77;;;;;;;2.77;87.38;101857.38;4977739;28;20034;-83
2021/03/08 00:19:48;;;;;;;44.25;24.45;;;;;;;2.77;87.78;101849.44;4997283;28;20050;-85
2021/03/08 00:22:13;;;;;;;43.60;23.02;;;;;;;2.78;87.64;101853.78;4948671;28;20038;-85
2021/03/08 00:24:39;;;;;;;42.65;22.00;;;;;;;2.76;87.46;101847.69;4887801;29;20033;-85
2021/03/08 00:27:05;;;;;;;43.90;23.77;;;;;;;2.74;87.25;101844.31;4874098;29;20466;-85
2021/03/08 00:29:30;;;;;;;45.72;26.02;;;;;;;2.77;88.14;101845.94;4872475;29;20052;-86
2021/03/08 00:31:55;;;;;;;48.88;24.42;;;;;;;2.76;87.78;101845.03;4892950;29;20044;-84
2021/03/08 00:34:21;;;;;;;46.47;26.60;;;;;;;2.78;88.04;101851.13;4894948;29;20077;-86
2021/03/08 00:36:47;;;;;;;40.63;23.27;;;;;;;2.72;87.81;101859.44;4877050;29;20044;-85
2021/03/08 00:39:12;;;;;;;48.95;27.13;;;;;;;2.70;88.13;101848.94;4868804;29;20119;-84
2021/03/08 00:41:37;;;;;;;47.35;26.38;;;;;;;2.69;87.96;101851.66;4886426;29;20091;-85
2021/03/08 00:44:04;;;;;;;49.05;27.70;;;;;;;2.70;88.69;101848.06;4866255;29;20052;-86
2021/03/08 00:46:29;;;;;;;47.45;23.85;;;;;;;2.69;87.95;101851.66;4857468;29;20048;-84
2021/03/08 00:48:55;;;;;;;47.00;26.05;;;;;;;2.66;88.27;101847.38;4865437;29;20416;-85
2021/03/08 00:51:20;;;;;;;47.30;23.73;;;;;;;2.64;88.06;101845.75;4903548;29;20055;-86
2021/03/08 00:53:45;;;;;;;46.30;24.63;;;;;;;2.64;88.43;101843.09;4965557;28;20039;-85
2021/03/08 00:56:11;;;;;;;46.20;26.20;;;;;;;2.64;88.79;101848.41;4968594;28;20053;-85
2021/03/08 00:58:37;;;;;;;52.60;27.77;;;;;;;2.64;88.88;101851.91;4960817;28;20039;-85
2021/03/08 01:01:03;;;;;;;48.08;26.25;;;;;;;2.62;88.92;101843.22;4991283;28;20721;-86
2021/03/08 01:03:28;;;;;;;52.63;26.02;;;;;;;2.60;89.53;101834.47;4998814;28;20485;-85
2021/03/08 01:05:53;;;;;;;49.05;27.45;;;;;;;2.60;89.55;101838.94;4997611;28;20117;-85
2021/03/08 01:08:19;;;;;;;52.30;26.42;;;;;;;2.60;89.36;101836.28;4989897;28;20042;-85
2021/03/08 01:10:44;;;;;;;48.08;26.67;;;;;;;2.62;89.72;101831.75;4982582;28;20198;-85
2021/03/08 01:13:10;;;;;;;49.00;24.13;;;;;;;2.58;89.53;101824.91;4969649;28;20502;-85
2021/03/08 01:15:35;;;;;;;45.53;26.42;;;;;;;2.59;89.89;101830.13;4971169;28;20039;-85
2021/03/08 01:18:01;;;;;;;47.95;23.77;;;;;;;2.55;90.25;101825.09;4961277;28;20529;-87
2021/03/08 01:20:28;;;;;;;53.08;27.48;;;;;;;2.57;90.21;101823.22;4962328;28;20030;-85
2021/03/08 01:22:53;;;;;;;48.95;25.33;;;;;;;2.55;90.60;101825.94;4959244;28;20153;-86
2021/03/08 01:25:26;;;;;;;52.85;28.60;;;;;;;2.55;90.64;101817.13;4968568;28;20125;-85
2021/03/08 01:27:51;;;;;;;49.22;27.23;;;;;;;2.55;90.57;101815.34;4960127;28;20046;-85
2021/03/08 01:30:23;;;;;;;47.05;26.70;;;;;;;2.53;91.15;101816.34;4944877;28;20038;-85
2021/03/08 01:32:49;;;;;;;49.72;28.30;;;;;;;2.54;91.12;101812.78;4968588;28;20089;-85
2021/03/08 01:35:14;;;;;;;46.00;25.80;;;;;;;2.52;91.61;101815.50;4955503;28;20415;-85
2021/03/08 01:37:40;;;;;;;47.17;25.35;;;;;;;2.53;91.69;101809.25;4975777;28;20100;-85
2021/03/08 01:40:08;;;;;;;50.58;27.35;;;;;;;2.54;91.47;101815.44;4974522;28;20038;-85
2021/03/08 01:42:34;;;;;;;47.53;26.25;;;;;;;2.51;91.77;101812.97;4982305;28;20510;-85
2021/03/08 01:45:00;;;;;;;49.92;27.25;;;;;;;2.45;91.98;101808.88;4988682;28;20050;-85
2021/03/08 01:47:25;;;;;;;59.03;28.95;;;;;;;2.48;92.53;101812.19;4989429;28;20046;-86
2021/03/08 01:49:51;;;;;;;48.35;26.42;;;;;;;2.52;91.92;101804.06;4991917;28;20035;-85
2021/03/08 01:52:16;;;;;;;47.42;26.05;;;;;;;2.52;92.18;101812.84;4988086;28;20045;-85
2021/03/08 01:54:42;;;;;;;53.45;25.50;;;;;;;2.52;92.60;101806.72;4988268;28;20521;-86
2021/03/08 01:57:09;;;;;;;51.90;28.50;;;;;;;2.57;92.15;101796.72;4949289;28;20678;-85
2021/03/08 01:59:35;;;;;;;49.75;25.55;;;;;;;2.55;92.33;101803.88;4978676;28;20051;-85
2021/03/08 02:02:01;;;;;;;52.50;27.48;;;;;;;2.55;92.36;101788.84;4984497;28;20054;-84
2021/03/08 02:04:27;;;;;;;46.45;24.52;;;;;;;2.57;92.54;101792.25;4974313;28;20042;-85
2021/03/08 02:06:52;;;;;;;46.95;24.27;;;;;;;2.58;92.67;101791.31;4968924;28;20516;-85
2021/03/08 02:09:17;;;;;;;49.58;25.30;;;;;;;2.58;92.35;101775.41;4970063;28;20047;-86
2021/03/08 02:11:49;;;;;;;50.65;28.50;;;;;;;2.62;92.50;101784.06;4947170;28;20497;-85
2021/03/08 02:14:31;;;;;;;51.17;24.48;;;;;;;2.63;92.15;101785.75;4985191;28;20034;-84
2021/03/08 02:17:10;;;;;;;48.28;27.05;;;;;;;2.63;92.79;101775.16;4982807;28;20058;-86
2021/03/08 02:20:22;;;;;;;49.50;25.65;;;;;;;2.63;93.00;101783.09;4980790;28;20050;-84
2021/03/08 02:23:19;;;;;;;46.75;25.35;;;;;;;2.61;92.78;101777.88;4948498;28;20513;-86
2021/03/08 02:26:03;;;;;;;51.58;28.85;;;;;;;2.64;93.17;101774.19;4970203;28;20379;-85
2021/03/08 02:28:46;;;;;;;47.50;27.63;;;;;;;2.64;92.79;101777.69;4946530;28;20039;-86
2021/03/08 02:31:15;;;;;;;49.33;27.13;;;;;;;2.65;93.32;101774.13;4982042;28;20039;-86
2021/03/08 02:33:51;;;;;;;50.00;23.58;;;;;;;2.69;92.92;101769.50;4985514;28;20462;-85
2021/03/08 02:36:18;;;;;;;50.45;28.35;;;;;;;2.72;93.07;101769.31;4985066;28;20062;-85
2021/03/08 02:38:50;;;;;;;49.55;25.85;;;;;;;2.70;93.16;101765.88;4966269;28;20058;-86
2021/03/08 02:41:20;;;;;;;45.42;24.00;;;;;;;2.70;92.86;101765.88;4986772;28;20054;-85
2021/03/08 02:43:49;;;;;;;52.35;28.15;;;;;;;2.76;93.17;101769.97;4969116;28;20099;-84
2021/03/08 02:46:23;;;;;;;46.50;24.15;;;;;;;2.69;93.41;101767.69;4957342;29;20044;-85
2021/03/08 02:48:51;;;;;;;49.00;26.50;;;;;;;2.77;92.63;101766.41;4910084;29;20047;-85
2021/03/08 02:51:20;;;;;;;48.47;28.15;;;;;;;2.79;92.74;101764.50;4908742;29;20054;-85
2021/03/08 02:53:47;;;;;;;;;;;;;;;2.78;92.95;101758.34;4936227;28;20047;-86
2021/03/08 02:56:16;;;;;;;;;;;;;;;2.73;93.08;101773.66;4946016;28;19914;-85
2021/03/08 02:58:42;;;;;;;;;;;;;;;2.65;93.57;101760.03;4938151;29;19919;-86
2021/03/08 03:01:09;;;;;;;;;;;;;;;2.62;94.37;101762.84;4953337;29;21063;-86
2021/03/08 03:03:36;;;;;;;;;;;;;;;2.60;94.85;101762.09;4943720;29;19938;-85
2021/03/08 03:06:02;;;;;;;;;;;;;;;2.59;95.30;101763.00;4918276;29;20010;-85
2021/03/08 03:08:28;;;;;;;;;;;;;;;2.60;95.35;101762.09;4892974;29;19951;-86
2021/03/08 03:10:54;;;;;;;;;;;;;;;2.61;95.22;101761.13;4887133;29;20025;-86
2021/03/08 03:13:19;;;;;;;;;;;;;;;2.59;95.68;101765.66;4895751;29;19954;-85
2021/03/08 03:15:45;;;;;;;;;;;;;;;2.60;95.94;101756.78;4895767;29;19920;-85
2021/03/08 03:18:12;;;;;;;;;;;;;;;2.62;95.28;101762.84;4952065;28;20475;-85
2021/03/08 03:20:38;;;;;;;;;;;;;;;2.60;95.95;101759.44;4955789;28;19936;-85
2021/03/08 03:23:05;;;;;;;;;;;;;;;2.61;95.83;101755.81;4925975;28;19925;-85
2021/03/08 03:25:31;;;;;;;;;;;;;;;2.60;95.75;101762.94;4967442;28;20301;-85
2021/03/08 03:27:57;;;;;;;;;;;;;;;2.60;95.46;101754.13;4962345;28;19920;-85
2021/03/08 03:30:24;;;;;;;;;;;;;;;2.59;95.52;101761.22;4932695;28;19918;-85
2021/03/08 03:32:50;;;;;;;;;;;;;;;2.61;95.78;101758.47;4962571;28;19918;-86
2021/03/08 03:35:16;;;;;;;;;;;;;;;2.61;95.32;101755.81;4967948;28;19914;-85
2021/03/08 03:37:42;;;;;;;;;;;;;;;2.58;95.27;101759.50;4976218;28;20316;-85
2021/03/08 03:40:08;;;;;;;;;;;;;;;2.57;95.81;101759.59;4997718;28;19924;-85
2021/03/08 03:42:34;;;;;;;;;;;;;;;2.58;95.72;101766.59;4972641;28;19922;-85
2021/03/08 03:44:59;;;;;;;;;;;;;;;2.60;95.50;101762.94;4987752;28;19925;-85
2021/03/08 03:47:24;;;;;;;;;;;;;;;2.61;95.58;101766.44;4995506;28;19914;-86
2021/03/08 03:49:50;;;;;;;;;;;;;;;2.59;95.58;101760.34;4989492;28;20069;-85
2021/03/08 03:52:16;;;;;;;;;;;;;;;2.60;95.94;101762.09;4993997;28;19913;-85
2021/03/08 03:54:41;;;;;;;;;;;;;;;2.58;95.84;101761.31;4961263;28;19925;-85
2021/03/08 03:57:07;;;;;;;;;;;;;;;2.59;96.31;101768.31;4961547;28;19920;-86
2021/03/08 03:59:39;;;;;;;;;;;;;;;2.58;96.43;101767.44;4934576;28;19950;-85
2021/03/08 04:02:06;;;;;;;;;;;;;;;2.60;96.71;101776.19;4941994;28;19957;-85
2021/03/08 04:04:34;;;;;;;;;;;;;;;2.56;96.81;101774.66;4921710;29;19994;-86
2021/03/08 04:07:03;;;;;;;;;;;;;;;2.53;98.00;101779.25;4932160;29;19922;-85
2021/03/08 04:09:29;;;;;;;;;;;;;;;2.59;98.07;101778.91;4950102;28;20447;-85
2021/03/08 04:11:58;;;;;;;;;;;;;;;2.54;99.35;101779.19;4943605;28;19914;-86
2021/03/08 04:14:24;;;;;;;;;;;;;;;2.46;100.00;101784.91;4952033;28;19997;-85
2021/03/08 04:16:51;;;;;;;;;;;;;;;2.45;100.00;101788.50;4969976;28;20008;-87
2021/03/08 04:19:19;;;;;;;;;;;;;;;2.39;100.00;101785.38;4936597;28;19918;-86
2021/03/08 04:21:46;;;;;;;;;;;;;;;2.38;100.00;101783.66;4924084;29;19918;-86
2021/03/08 04:24:13;;;;;;;;;;;;;;;2.36;100.00;101783.75;4934334;29;19922;-84
2021/03/08 04:26:38;;;;;;;;;;;;;;;2.34;100.00;101784.78;4920340;29;19925;-85
2021/03/08 04:29:04;;;;;;;;;;;;;;;2.31;100.00;101785.78;4936127;28;19918;-84
2021/03/08 04:31:30;;;;;;;;;;;;;;;2.26;100.00;101786.03;4975701;28;19968;-86
2021/03/08 04:33:56;;;;;;;;;;;;;;;2.23;100.00;101782.72;4991595;28;19914;-86
2021/03/08 04:36:22;;;;;;;;;;;;;;;2.27;100.00;101789.53;4993896;28;20364;-85
2021/03/08 04:38:47;;;;;;;;;;;;;;;2.23;100.00;101791.50;4982567;28;20065;-87
2021/03/08 04:41:13;;;;;;;;;;;;;;;2.21;100.00;101797.84;4970686;28;19914;-85
2021/03/08 04:43:38;;;;;;;;;;;;;;;2.18;100.00;101795.34;4970681;28;19918;-85
2021/03/08 04:46:04;;;;;;;;;;;;;;;2.16;100.00;101797.25;4970180;28;20457;-85
2021/03/08 04:48:30;;;;;;;;;;;;;;;2.16;100.00;101802.56;4967024;28;19917;-86
2021/03/08 04:50:56;;;;;;;;;;;;;;;2.15;100.00;101800.81;4940576;28;20021;-85
2021/03/08 04:53:22;;;;;;;;;;;;;;;2.14;100.00;101796.47;4937845;29;19926;-85
2021/03/08 04:55:47;;;;;;;;;;;;;;;2.16;100.00;101805.22;4929200;28;19915;-85
2021/03/08 04:58:13;;;;;;;;;;;;;;;2.17;100.00;101804.25;4933601;29;20342;-85
2021/03/08 05:00:38;;;;;;;;;;;;;;;2.20;100.00;101806.72;4924073;28;19925;-85
2021/03/08 05:03:04;;;;;;;;;;;;;;;2.21;100.00;101805.78;4953766;28;19957;-84
2021/03/08 05:05:30;;;;;;;;;;;;;;;2.22;100.00;101807.50;4934707;28;19961;-85
2021/03/08 05:08:15;;;;;;;;;;;;;;;2.19;100.00;101800.59;4929115;28;19961;-85
2021/03/08 05:10:41;;;;;;;;;;;;;;;2.19;100.00;101797.94;4954595;28;19985;-86
2021/03/08 05:13:08;;;;;;;;;;;;;;;2.18;100.00;101800.66;4951199;28;19966;-85
2021/03/08 05:15:34;;;;;;;;;;;;;;;2.14;100.00;101802.63;4938164;28;20540;-84
2021/03/08 05:18:00;;;;;;;;;;;;;;;2.13;100.00;101797.41;4932088;29;19954;-84
2021/03/08 05:20:26;;;;;;;;;;;;;;;2.13;100.00;101805.34;4943301;28;19921;-85
2021/03/08 05:22:53;;;;;;;;;;;;;;;2.10;100.00;101802.88;4967437;28;19913;-85
2021/03/08 05:25:19;;;;;;;;;;;;;;;2.12;100.00;101798.34;4968155;28;19914;-85
2021/03/08 05:27:45;;;;;;;;;;;;;;;2.12;100.00;101804.50;4981558;28;19917;-86
2021/03/08 05:30:14;;;;;;;;;;;;;;;2.14;100.00;101804.44;4988630;28;19925;-87
2021/03/08 05:33:06;;;;;;;;;;;;;;;2.12;100.00;101809.78;4967044;28;19920;-85
2021/03/08 05:35:32;;;;;;;;;;;;;;;2.11;100.00;101812.53;4972283;28;19924;-85
2021/03/08 05:38:00;;;;;;;;;;;;;;;2.11;100.00;101809.91;4971663;28;20007;-85
2021/03/08 05:40:27;;;;;;;;;;;;;;;2.11;100.00;101820.50;4965425;28;19922;-85
2021/03/08 05:42:57;;;;;;;;;;;;;;;2.12;100.00;101811.59;4971530;28;19914;-85
2021/03/08 05:45:26;;;;;;;;;;;;;;;2.13;100.00;101813.28;4972347;28;19914;-85
2021/03/08 05:48:01;;;;;;;;;;;;;;;2.17;100.00;101815.69;4970109;28;19918;-86
2021/03/08 05:50:45;;;;;;;;;;;;;;;2.16;100.00;101823.75;4968805;28;19920;-84
2021/03/08 05:53:13;;;;;;;;;;;;;;;2.15;100.00;101822.88;4963438;28;19918;-82
2021/03/08 05:55:44;;;;;;;;;;;;;;;2.18;100.00;101828.00;4965648;28;19918;-86
2021/03/08 05:58:13;;;;;;;;;;;;;;;2.17;100.00;101820.16;4956000;28;19953;-86
2021/03/08 06:00:51;;;;;;;;;;;;;;;2.17;100.00;101825.44;4953796;28;19949;-86
2021/03/08 06:03:33;;;;;;;;;;;;;;;2.21;100.00;101819.88;4918210;28;19922;-84
2021/03/08 06:06:20;;;;;;;;;;;;;;;2.18;100.00;101822.69;4953292;28;19922;-87
2021/03/08 06:08:46;;;;;;;;;;;;;;;2.22;100.00;101826.06;4979647;28;19914;-87
2021/03/08 06:11:12;;;;;;;;;;;;;;;2.24;100.00;101826.78;4961403;28;19914;-86
2021/03/08 06:13:44;;;;;;;;;;;;;;;2.28;100.00;101825.69;4962878;28;20061;-86
2021/03/08 06:16:14;;;;;;;;;;;;;;;2.26;100.00;101827.56;4962633;28;20009;-87
2021/03/08 06:18:47;;;;;;;;;;;;;;;2.24;100.00;101822.38;4968797;28;19918;-87
2021/03/08 06:21:13;;;;;;;;;;;;;;;2.24;100.00;101827.69;4938631;28;19914;-87
2021/03/08 06:23:40;;;;;;;;;;;;;;;2.28;100.00;101831.00;4962959;28;19921;-87
2021/03/08 06:26:06;;;;;;;;;;;;;;;2.30;100.00;101831.75;4956413;28;19927;-87
2021/03/08 06:28:32;;;;;;;;;;;;;;;2.32;100.00;101839.63;4979087;28;19918;-88
2021/03/08 06:30:57;;;;;;;;;;;;;;;2.34;100.00;101843.91;4947552;28;19914;-86
2021/03/08 06:33:23;;;;;;;;;;;;;;;2.36;100.00;101835.84;4983143;28;19918;-87
2021/03/08 06:35:52;;;;;;;;;;;;;;;2.32;100.00;101840.47;4940044;28;20541;-87
2021/03/08 06:38:18;;;;;;;;;;;;;;;2.34;100.00;101843.91;4927901;29;20450;-86
2021/03/08 06:40:45;;;;;;;;;;;;;;;2.37;100.00;101845.53;4890806;29;19919;-87
2021/03/08 06:43:10;;;;;;;;;;;;;;;2.36;100.00;101844.69;4834922;29;19920;-88
2021/03/08 06:45:36;;;;;;;;;;;;;;;2.36;100.00;101842.03;4875716;29;19915;-85
2021/03/08 06:48:01;;;;;;;;;;;;;;;2.38;100.00;101850.72;4856132;29;19919;-88
2021/03/08 06:50:26;;;;;;;;;;;;;;;2.38;100.00;101842.78;4873718;29;20113;-87
2021/03/08 06:52:52;;;;;;;;;;;;;;;2.37;100.00;101849.03;4868056;29;20444;-89
2021/03/08 06:55:20;;;;;;;;;;;;;;;2.43;100.00;101842.53;4861321;29;19938;-90
2021/03/08 06:57:45;;;;;;;;;;;;;;;2.41;100.00;101850.56;4866252;29;19923;-90
2021/03/08 07:00:12;;;;;;;;;;;;;;;2.45;100.00;101853.91;4706988;29;4017422;-91
2021/03/08 07:02:46;;;;;;;;;;;;;;;2.42;100.00;101857.56;4816137;29;825458;-90
2021/03/08 07:05:26;;;;;;;;;;;;;;;2.43;100.00;101863.72;4788700;29;789419;-90
2021/03/08 07:08:01;;;;;;;;;;;;;;;2.40;100.00;101862.09;4737648;29;769029;-90
2021/03/08 07:10:40;;;;;;;;;;;;;;;2.43;100.00;101867.22;4761777;29;678933;-89
2021/03/08 07:13:08;;;;;;;;;;;;;;;2.40;100.00;101870.03;4746622;29;614288;-88
2021/03/08 07:15:33;;;;;;;;;;;;;;;2.40;100.00;101861.25;4809908;29;618260;-91
2021/03/08 07:17:58;;;;;;;;;;;;;;;2.41;100.00;101874.38;4792001;29;614117;-91
2021/03/08 07:20:27;;;;;;;;;;;;;;;2.43;100.00;101875.16;4814614;29;405220;-91
2021/03/08 07:22:54;;;;;;;;;;;;;;;2.47;100.00;101884.69;4747027;29;223970;-86
2021/03/08 07:25:25;;;;;;;;;;;;;;;2.46;100.00;101879.44;4737267;29;20391;-85
2021/03/08 07:28:00;;;;;;;;;;;;;;;2.47;100.00;101887.31;4782913;29;20642;-89
2021/03/08 07:30:29;;;;;;;;;;;;;;;2.48;100.00;101886.38;4819868;29;568513;-88
2021/03/08 07:33:16;;;;;;;;;;;;;;;2.48;100.00;101891.69;4822666;29;596330;-86
2021/03/08 07:35:48;;;;;;;;;;;;;;;2.46;100.00;101885.59;4832924;29;578478;-88
2021/03/08 07:38:27;;;;;;;;;;;;;;;2.47;100.00;101886.44;4837764;29;656361;-88
2021/03/08 07:41:07;;;;;;;;;;;;;;;2.49;100.00;101887.22;4836560;29;623683;-88
2021/03/08 07:43:32;;;;;;;;;;;;;;;2.52;100.00;101881.75;4836445;29;726671;-89
2021/03/08 07:45:58;;;;;;;;;;;;;;;2.52;100.00;101888.84;4816308;29;722254;-87
2021/03/08 07:48:23;;;;;;;;;;;;;;;2.51;100.00;101898.59;4840370;29;19995;-87
2021/03/08 07:50:49;;;;;;;;;;;;;;;2.51;100.00;101889.81;4761583;29;20051;-87
2021/03/08 07:53:31;;;;;;;;;;;;;;;2.55;100.00;101888.69;4745919;29;20009;-85
2021/03/08 07:56:01;;;;;;;;;;;;;;;2.55;100.00;101888.69;4745428;29;19926;-88
2021/03/08 07:58:27;;;;;;;;;;;;;;;2.55;100.00;101889.53;4832038;29;19920;-88
2021/03/08 08:00:52;;;;;;;;;;;;;;;2.56;100.00;101890.38;4825606;29;224973;-89
2021/03/08 08:21:55;;;;;;;;;;;;;;;2.64;100.00;101880.22;4736683;29;223257;-88
2021/03/08 08:24:26;;;;;;;;;;;;;;;2.69;100.00;101886.09;4784741;29;20434;-87
2021/03/08 08:26:52;;;;;;;;;;;;;;;2.73;100.00;101887.63;4760090;29;19918;-87
2021/03/08 08:29:21;;;;;;;;;;;;;;;2.74;100.00;101886.72;4819048;29;19920;-88
2021/03/08 08:32:06;;;;;;;;;;;;;;;2.77;100.00;101888.34;4857739;29;19916;-87
2021/03/08 08:34:33;;;;;;;;;;;;;;;2.78;100.00;101892.69;4843366;29;19916;-87
2021/03/08 08:37:18;;;;;;;;;;;;;;;2.80;100.00;101891.66;4840365;29;19920;-87
2021/03/08 08:40:03;;;;;;;;;;;;;;;2.79;100.00;101899.69;4835824;29;19916;-88
2021/03/08 08:42:29;;;;;;;;;;;;;;;2.82;100.00;101900.38;4840034;29;20421;-88
2021/03/08 08:44:55;;;;;;;;;;;;;;;2.85;100.00;101902.88;4838430;29;19919;-88
2021/03/08 08:47:34;;;;;;;;;;;;;;;2.87;100.00;101900.97;4831303;29;19920;-87
2021/03/08 08:50:04;;;;;;;;;;;;;;;2.96;100.00;101906.69;4855089;29;19916;-88
2021/03/08 08:52:41;;;;;;;;;;;;;;;2.93;100.00;101905.94;4846748;29;19920;-88
2021/03/08 08:55:07;;;;;;;;;;;;;;;2.97;100.00;101905.75;4850972;29;20015;-88
2021/03/08 08:57:32;;;;;;;;;;;;;;;2.96;100.00;101909.34;4842722;29;20007;-88
2021/03/08 09:00:19;;;;;;;;;;;;;;;2.96;100.00;101907.53;4832094;29;19916;-87
2021/03/08 09:03:01;;;;;;;;;;;;;;;2.99;100.00;101909.16;5028206;27;20278;-82
2021/03/08 09:05:29;;;;;;;;;;;;;;;3.01;100.00;101908.13;5042952;28;20374;-85
2021/03/08 09:08:13;;;;;;;;;;;;;;;3.00;100.00;101900.28;5072340;28;20128;-83
2021/03/08 09:10:38;;;;;;;;;;;;;;;3.03;100.00;101900.09;5043651;28;19921;-85
2021/03/08 09:13:09;;;;;;;;;;;;;;;3.04;100.00;101902.66;5042824;28;20318;-83
2021/03/08 09:15:35;;;;;;;;;;;;;;;3.02;100.00;101908.97;5042596;28;19952;-81
2021/03/08 09:18:02;;;;;;;;;;;;;;;3.04;100.00;101902.66;5057763;28;19928;-82
2021/03/08 09:20:29;;;;;;;;;;;;;;;3.07;100.00;101901.63;5042838;28;19921;-80
2021/03/08 09:22:57;;;;;;;;;;;;;;;3.10;100.00;101906.75;5042404;28;19928;-81
2021/03/08 09:25:28;;;;;;;;;;;;;;;3.10;100.00;101902.28;5043384;28;19921;-82
2021/03/08 09:27:59;;;;;;;;;;;;;;;3.15;100.00;101905.53;5032649;28;19925;-82
2021/03/08 09:30:44;;;;;;;;;;;;;;;3.14;100.00;101906.50;5028064;28;19921;-80
2021/03/08 09:33:13;;;;;;;;;;;;;;;3.15;100.00;101910.00;5020033;28;19928;-82
2021/03/08 09:35:41;;;;;;;;;;;;;;;3.21;100.00;101912.28;5021907;28;19928;-83
2021/03/08 09:38:09;;;;;;;;;;;;;;;3.31;100.00;101910.81;5052686;28;19929;-81
2021/03/08 09:40:42;;;;;;;;;;;;;;;3.37;100.00;101910.44;5021674;28;20386;-82
2021/03/08 09:43:21;;;;;;;;;;;;;;;3.30;100.00;101914.41;5016435;28;19917;-80
2021/03/08 09:46:06;;;;;;;;;;;;;;;3.38;100.00;101916.59;5036968;28;20298;-83
2021/03/08 09:48:34;;;;;;;;;;;;;;;3.51;100.00;101911.41;4995720;28;19922;-83
2021/03/08 09:51:10;;;;;;;;;;;;;;;3.54;100.00;101909.47;5028360;28;19931;-82
2021/03/08 09:53:36;;;;;;;;;;;;;;;3.59;100.00;101914.47;5010346;28;19918;-83
2021/03/08 09:56:02;;;;;;;;;;;;;;;3.53;100.00;101915.69;5014689;28;19932;-81
2021/03/08 09:58:28;;;;;;;;;;;;;;;3.51;100.00;101916.72;5028193;28;19917;-82
2021/03/08 10:00:53;;;;;;;;;;;;;;;3.60;100.00;101916.19;5040257;28;19932;-80
2021/03/08 10:03:18;;;;;;;;;;;;;;;3.55;100.00;101910.31;5067262;28;20328;-83
2021/03/08 10:05:43;;;;;;;;;;;;;;;3.52;100.00;101911.34;5039430;28;20004;-82
2021/03/08 10:08:13;;;;;;;;;;;;;;;3.58;100.00;101910.13;5045891;28;19921;-83
2021/03/08 10:10:40;;;;;;;;;;;;;;;3.72;100.00;101904.00;5042494;28;19926;-81
2021/03/08 10:13:05;;;;;;;;;;;;;;;3.81;100.00;101909.59;5038097;28;20273;-80
2021/03/08 10:15:47;;;;;;;;;;;;;;;3.82;100.00;101908.63;5029429;28;19976;-80
2021/03/08 10:18:13;;;;;;;;;;;;;;;3.83;100.00;101909.50;5033518;28;19921;-83
2021/03/08 10:20:47;;;;;;;;;;;;;;;3.84;100.00;101914.72;5030005;28;19921;-81
2021/03/08 10:23:13;;;;;;;;;;;;;;;3.80;100.00;101913.19;5028354;28;19947;-83
2021/03/08 10:25:38;;;;;;;;;;;;;;;3.84;100.00;101919.16;5020902;28;20024;-81
2021/03/08 10:28:04;;;;;;;;;;;;;;;3.91;100.00;101919.63;5030389;28;20468;-80
2021/03/08 10:30:31;;;;;;;;;;;;;;;3.93;100.00;101917.75;5027663;28;19925;-81
2021/03/08 10:33:02;;;;;;;;;;;;;;;3.92;100.00;101910.75;5019342;28;19921;-81
2021/03/08 10:35:28;;;;;;;;;;;;;;;3.83;100.00;101913.00;5030762;28;19929;-80
2021/03/08 10:37:54;;;;;;;;;;;;;;;3.90;100.00;101912.63;5026059;28;19995;-81
2021/03/08 10:40:21;;;;;;;;;;;;;;;3.89;100.00;101916.25;5025899;28;20150;-80
2021/03/08 10:42:46;;;;;;;;;;;;;;;3.90;100.00;101913.47;5029289;28;20365;-82
2021/03/08 10:45:12;;;;;;;;;;;;;;;3.94;100.00;101920.34;5040778;28;19957;-82
2021/03/08 10:47:37;;;;;;;;;;;;;;;4.00;100.00;101925.25;5023835;28;19971;-79
2021/03/08 10:50:03;;;;;;;;;;;;;;;4.03;100.00;101924.22;5041192;28;20007;-79
2021/03/08 10:52:29;;;;;;;;;;;;;;;4.04;100.00;101920.59;5024519;28;19949;-81
2021/03/08 10:54:54;;;;;;;;;;;;;;;3.96;100.00;101921.06;5021382;28;20226;-82
2021/03/08 10:57:21;;;;;;;;;;;;;;;4.07;100.00;101920.41;5029833;28;19925;-78
2021/03/08 10:59:50;;;;;;;;;;;;;;;4.20;100.00;101916.06;5033798;28;19955;-83
2021/03/08 11:02:17;;;;;;;;;;;;;;;4.26;100.00;101922.78;5025328;28;19929;-80
2021/03/08 11:04:43;;;;;;;;;;;;;;;4.29;100.00;101920.78;5028070;28;20317;-79
2021/03/08 11:07:08;;;;;;;;;;;;;;;4.36;100.00;101913.28;5042351;28;19921;-81
2021/03/08 11:09:35;;;;;;;;;;;;;;;4.31;100.00;101912.72;5028179;28;19917;-82
2021/03/08 11:12:01;;;;;;;;;;;;;;;4.34;100.00;101907.19;5025160;28;20012;-79
2021/03/08 11:14:27;;;;;;;;;;;;;;;4.29;100.00;101912.81;5034656;28;19929;-80
2021/03/08 11:16:53;;;;;;;;;;;;;;;4.32;100.00;101901.16;5028459;28;19927;-82
2021/03/08 11:19:25;;;;;;;;;;;;;;;4.45;100.00;101903.88;5043687;28;19921;-81
2021/03/08 11:22:04;;;;;;;;;;;;;;;4.57;100.00;101903.06;5044486;28;20468;-80
2021/03/08 11:24:33;;;;;;;;;;;;;;;4.53;100.00;101906.91;5047260;28;19960;-82
2021/03/08 11:27:07;;;;;;;;;;;;;;;4.56;100.00;101906.69;5019080;28;19975;-82
2021/03/08 11:29:32;;;;;;;;;;;;;;;4.53;100.00;101905.09;5039917;28;19921;-82
2021/03/08 11:31:57;;;;;;;;;;;;;;;4.55;100.00;101899.69;5020648;28;19922;-80
2021/03/08 11:34:39;;;;;;;;;;;;;;;4.62;100.00;101913.44;5035823;28;20020;-81
2021/03/08 11:37:12;;;;;;;;;;;;;;;4.59;100.00;101906.50;5017910;28;19921;-79
2021/03/08 11:39:38;;;;;;;;;;;;;;;4.55;100.00;101907.66;5026533;28;20006;-82
2021/03/08 11:42:04;;;;;;;;;;;;;;;4.56;100.00;101905.84;5028280;28;19928;-78
2021/03/08 11:44:29;;;;;;;;;;;;;;;4.58;100.00;101909.28;5025954;28;19921;-82
2021/03/08 11:46:54;;;;;;;;;;;;;;;4.57;100.00;101897.75;5054406;28;20000;-80
2021/03/08 11:49:20;;;;;;;;;;;;;;;4.65;100.00;101902.59;5025405;28;20427;-81
2021/03/08 11:51:45;;;;;;;;;;;;;;;4.60;100.00;101896.72;5044111;28;20007;-80
2021/03/08 11:54:10;;;;;;;;;;;;;;;4.67;100.00;101890.91;5017185;28;19921;-78
2021/03/08 11:56:35;;;;;;;;;;;;;;;4.66;98.95;101897.19;5044673;28;20413;-80
2021/03/08 11:59:00;;;;;;;;;;;;;;;4.79;100.00;101896.41;5019594;28;19965;-81
2021/03/08 12:01:26;;;;;;;;;;;;;;;4.89;99.45;101890.38;5037026;28;19936;-80
2021/03/08 12:03:51;;;;;;;;;;;;;;;4.89;98.44;101890.38;5016581;28;19921;-79
2021/03/08 12:06:16;;;;;;;;;;;;;;;5.09;100.00;101889.06;5015202;28;20420;-79
2021/03/08 12:08:41;;;;;;;;;;;;;;;5.10;96.84;101880.13;5003877;28;20295;-80
2021/03/08 12:11:07;;;;;;;;;;;;;;;5.03;97.74;101883.28;5015314;28;20377;-81
2021/03/08 12:13:32;;;;;;;;;;;;;;;5.27;100.00;101886.13;5027559;28;19990;-78
2021/03/08 12:15:57;;;;;;;;;;;;;;;5.31;96.62;101876.97;5023510;28;20060;-83
2021/03/08 12:18:22;;;;;;;;;;;;;;;5.37;97.30;101876.56;5057075;28;20015;-80
2021/03/08 12:20:48;;;;;;;;;;;;;;;5.34;95.32;101879.41;5040208;28;19928;-81
2021/03/08 12:23:13;;;;;;;;;;;;;;;5.29;95.25;101871.72;5053238;28;19927;-80
2021/03/08 12:25:39;;;;;;;;;;;;;;;5.33;96.51;101867.09;5024297;28;19936;-81
2021/03/08 12:28:05;;;;;;;;;;;;;;;5.46;96.80;101873.25;5025363;28;19921;-81
2021/03/08 12:30:30;;;;;;;;;;;;;;;5.23;91.62;101865.97;5024806;28;19921;-80
2021/03/08 12:32:59;;;;;;;;;;;;;;;5.30;94.73;101864.63;5025746;28;19929;-80
2021/03/08 12:35:24;;;;;;;;;;;;;;;5.28;93.02;101864.72;5050076;28;19929;-79
2021/03/08 12:37:50;;;;;;;;;;;;;;;5.33;93.17;101867.94;5007756;28;20246;-82
2021/03/08 12:40:15;;;;;;;;;;;;;;;5.34;91.44;101861.63;5005044;28;19917;-84
2021/03/08 12:42:40;;;;;;;;;;;;;;;5.43;93.18;101858.34;5012961;28;19936;-81